Latest Weather Observations for Lucas Heights

IDN60801

Issued at 11:04 pm EDT Saturday 20 December 2014 (issued every 30 minutes, with the page automatically refreshed every 10 minutes)

About weather observations | Map of weather stations | Latest weather observations for NSW | Other Formats
Station Details ID: 066023 Name: LUCAS HEIGHTS AWS Lat: -34.05 Lon: 150.98 Height: 140.0 m
Data from the previous 72 hours. | See also: Recent months for locations in New South Wales
Date/Time
EDT
Temp
°C
App
Temp
°C
Dew
Point
Rel
Hum
%
Delta-T
°C
Wind Press
QNH
hPa
Press
MSL
hPa
Rain
since 9 am
mm
Dir
 
Spd
km/h
Gust
km/h
Spd
kts
Gust
kts
20/10:45pm 17.4 17.0 12.9 75 2.5 NE 7 9 4 5 1018.9 - 0.0
20/10:30pm 17.4 16.6 12.9 75 2.5 NE 9 11 5 6 1018.8 - 0.0
20/10:15pm 17.2 16.3 12.7 75 2.5 NE 9 13 5 7 1018.8 - 0.0
20/10:00pm 17.5 16.7 12.8 74 2.6 NE 9 13 5 7 1018.7 - 0.0
20/09:45pm 17.6 16.8 12.8 73 2.7 NE 9 13 5 7 1018.5 - 0.0
20/09:30pm 17.7 17.2 12.7 72 2.8 NE 7 11 4 6 1018.3 - 0.0
20/09:15pm 17.9 17.4 12.7 71 2.9 ENE 7 9 4 5 1018.1 - 0.0
20/09:00pm 18.2 17.7 12.8 71 3.0 ENE 7 13 4 7 1017.9 - 0.0
20/08:45pm 18.4 17.6 12.8 70 3.2 ENE 9 13 5 7 1017.7 - 0.0
20/08:30pm 18.5 17.7 12.8 69 3.2 ENE 9 15 5 8 1017.5 - 0.0
20/08:15pm 18.8 17.6 12.8 68 3.4 ENE 11 19 6 10 1017.2 - 0.0
20/08:00pm 19.1 17.5 12.8 67 3.6 ENE 13 19 7 10 1017.1 - 0.0
20/07:45pm 19.4 17.8 12.7 65 3.8 ENE 13 20 7 11 1016.9 - 0.0
20/07:30pm 19.6 16.8 12.6 64 4.0 ENE 19 24 10 13 1016.7 - 0.0
20/07:15pm 19.8 17.7 12.4 62 4.2 ENE 15 20 8 11 1016.6 - 0.0
20/07:00pm 20.4 18.0 12.5 60 4.5 ENE 17 22 9 12 1016.4 - 0.0
20/06:45pm 20.7 18.6 12.5 59 4.7 ENE 15 22 8 12 1016.2 - 0.0
20/06:30pm 21.1 19.5 12.8 59 4.7 ENE 13 20 7 11 1015.9 - 0.0
20/06:15pm 20.9 18.5 12.5 58 4.8 ENE 17 26 9 14 1015.7 - 0.0
20/06:00pm 21.4 19.0 12.7 57 5.0 ENE 17 24 9 13 1015.5 - 0.0
20/05:45pm 21.4 18.7 12.8 58 4.9 ENE 19 28 10 15 1015.5 - 0.0
20/05:30pm 21.6 19.4 13.2 59 4.8 E 17 24 9 13 1015.5 - 0.0
20/05:15pm 21.0 18.3 12.9 60 4.6 E 19 30 10 16 1015.5 - 0.0
20/05:00pm 21.0 17.7 12.7 59 4.7 E 22 28 12 15 1015.6 - 0.0
20/04:45pm 21.5 18.8 13.0 58 4.9 E 19 28 10 15 1015.6 - 0.0
20/04:30pm 21.4 18.5 12.8 58 4.9 E 20 30 11 16 1015.7 - 0.0
20/04:15pm 21.6 18.7 13.0 58 4.9 E 20 32 11 17 1015.8 - 0.0
20/04:00pm 21.6 18.9 12.9 57 5.0 E 19 28 10 15 1015.9 - 0.0
20/03:45pm 22.0 19.3 12.9 56 5.2 E 19 30 10 16 1016.0 - 0.0
20/03:30pm 21.9 18.6 12.7 56 5.3 E 22 33 12 18 1016.1 - 0.0
20/03:15pm 22.2 19.5 13.0 56 5.3 E 19 30 10 16 1016.1 - 0.0
20/03:00pm 22.6 20.4 13.2 55 5.4 E 17 28 9 15 1016.1 - 0.0
20/02:45pm 22.6 19.8 13.2 55 5.4 E 20 28 11 15 1016.2 - 0.0
20/02:30pm 22.3 20.1 13.3 56 5.2 E 17 28 9 15 1016.2 - 0.0
20/02:15pm 22.3 20.0 12.9 55 5.4 E 17 32 9 17 1016.3 - 0.0
20/02:00pm 22.4 21.3 13.0 55 5.4 ENE 11 20 6 11 1016.4 - 0.0
20/01:45pm 22.2 20.3 13.0 56 5.3 E 15 28 8 15 1016.7 - 0.0
20/01:30pm 21.7 19.3 12.6 56 5.2 ENE 17 26 9 14 1016.8 - 0.0
20/01:15pm 22.3 20.3 12.6 54 5.6 ENE 15 28 8 15 1016.9 - 0.0
20/01:00pm 22.6 21.0 12.7 53 5.7 ENE 13 19 7 10 1017.1 - 0.0
20/12:45pm 22.6 20.9 12.5 53 5.8 ENE 13 19 7 10 1017.2 - 0.0
20/12:30pm 22.0 20.9 11.8 52 5.8 NNE 9 15 5 8 1017.4 - 0.0
20/12:15pm 21.9 21.2 11.9 53 5.6 N 7 19 4 10 1017.5 - 0.0
20/12:00pm 21.8 21.3 12.1 54 5.5 NNE 6 15 3 8 1017.6 - 0.0
20/11:45am 21.5 20.8 12.1 55 5.3 ENE 7 15 4 8 1017.8 - 0.0
20/11:30am 21.4 21.1 12.6 57 5.0 NE 6 13 3 7 1017.9 - 0.0
20/11:15am 20.5 20.0 12.2 59 4.7 NE 6 13 3 7 1018.0 - 0.0
20/11:00am 20.8 19.5 12.5 59 4.7 ENE 11 19 6 10 1018.0 - 0.0
20/10:45am 20.3 19.7 12.3 60 4.5 ENE 7 13 4 7 1018.1 - 0.0
20/10:30am 20.1 20.0 12.0 59 4.5 E 4 9 2 5 1018.2 - 0.0
20/10:15am 19.3 18.9 12.4 64 3.9 ENE 6 11 3 6 1018.2 - 0.0
20/10:00am 18.6 17.9 11.5 63 3.9 NNE 6 7 3 4 1018.2 - 0.0
20/09:45am 19.1 18.8 11.5 61 4.2 E 4 9 2 5 1018.3 - 0.0
20/09:30am 20.0 19.5 12.1 60 4.4 ENE 6 11 3 6 1018.3 - 0.0
20/09:15am 19.6 19.1 12.1 62 4.2 E 6 13 3 7 1018.4 - 0.0
20/09:00am 18.9 18.1 11.8 63 3.9 ESE 7 15 4 8 1018.3 - 0.0
20/08:45am 18.6 17.5 12.0 65 3.7 E 9 13 5 7 1018.4 - 0.0
20/08:30am 18.4 18.1 12.8 70 3.2 ESE 6 9 3 5 1018.4 - 0.0
20/08:15am 17.7 17.5 13.0 74 2.7 SE 6 7 3 4 1018.3 - 0.0
20/08:00am 17.0 17.3 13.4 79 2.0 S 4 7 2 4 1018.3 - 0.0
20/07:45am 16.2 15.9 12.7 80 1.9 SSE 6 7 3 4 1018.1 - 0.0
20/07:30am 15.8 15.4 12.4 80 1.9 SSE 6 7 3 4 1017.9 - 0.0
20/07:15am 15.6 15.2 12.3 81 1.8 SSE 6 7 3 4 1017.8 - 0.0
20/07:00am 15.4 14.8 12.2 81 1.8 SSE 7 7 4 4 1017.7 - 0.0
20/06:45am 15.3 14.7 12.3 82 1.6 SSE 7 9 4 5 1017.6 - 0.0
20/06:30am 15.0 14.5 12.1 83 1.6 SSE 6 7 3 4 1017.5 - 0.0
20/06:15am 14.5 13.9 11.8 84 1.5 SSE 6 7 3 4 1017.4 - 0.0
20/06:00am 14.3 13.6 11.5 83 1.5 SSE 6 7 3 4 1017.4 - 0.0
20/05:45am 14.4 13.5 11.4 82 1.6 SSE 7 9 4 5 1017.4 - 0.0
20/05:30am 14.6 13.7 11.5 82 1.7 SSE 7 9 4 5 1017.3 - 0.0
20/05:15am 14.9 13.7 11.7 81 1.7 SSE 9 11 5 6 1017.2 - 0.0
20/05:00am 14.9 13.7 11.7 81 1.7 SSE 9 11 5 6 1017.2 - 0.0
20/04:45am 15.0 13.8 11.7 80 1.8 S 9 15 5 8 1017.1 - 0.0
20/04:30am 15.1 13.9 11.6 79 1.9 S 9 13 5 7 1017.0 - 0.0
20/04:15am 15.2 13.6 11.5 78 2.0 S 11 13 6 7 1017.0 - 0.0
20/04:00am 15.4 13.8 11.5 77 2.1 S 11 15 6 8 1017.0 - 0.0
20/03:45am 15.5 13.9 11.4 76 2.2 SSE 11 15 6 8 1017.1 - 0.0
20/03:30am 15.7 14.8 11.4 75 2.3 S 7 9 4 5 1017.1 - 0.0
20/03:15am 15.8 14.6 11.5 75 2.3 SSE 9 13 5 7 1017.1 - 0.0
20/03:00am 15.9 14.6 11.4 74 2.4 SSE 9 13 5 7 1017.2 - 0.0
20/02:45am 15.9 15.2 11.3 74 2.5 SE 6 9 3 5 1017.3 - 0.0
20/02:30am 16.0 15.1 11.3 73 2.5 SSE 7 9 4 5 1017.4 - 0.0
20/02:15am 16.2 14.9 11.3 73 2.7 SSE 9 13 5 7 1017.6 - 0.0
20/02:00am 16.4 15.5 11.4 72 2.7 SSE 7 13 4 7 1017.6 - 0.0
20/01:45am 16.5 15.8 11.4 72 2.8 SSE 6 9 3 5 1017.8 - 0.0
20/01:30am 16.6 15.9 11.3 71 2.9 SSE 6 9 3 5 1017.9 - 0.0
20/01:15am 16.6 15.8 11.0 69 3.0 SSE 6 7 3 4 1018.1 - 0.0
20/01:00am 16.7 15.9 11.1 69 3.0 SE 6 11 3 6 1018.2 - 0.0
20/12:45am 16.9 16.1 11.1 68 3.1 SSE 6 11 3 6 1018.3 - 0.0
20/12:30am 17.1 15.8 11.1 68 3.3 SSE 9 13 5 7 1018.4 - 0.0
20/12:15am 17.1 16.1 11.0 67 3.3 SE 7 15 4 8 1018.6 - 0.0
20/12:00am 17.1 16.2 10.8 66 3.4 SE 6 9 3 5 1018.6 - 0.0
 
Date/Time
EDT
Temp
°C
App
Temp
°C
Dew
Point
Rel
Hum
%
Delta-T
°C
Wind Press
QNH
hPa
Press
MSL
hPa
Rain
since 9 am
mm
Dir
 
Spd
km/h
Gust
km/h
Spd
kts
Gust
kts
19/11:45pm 17.2 16.1 10.8 66 3.5 SE 7 15 4 8 1018.7 - 0.0
19/11:30pm 17.3 16.2 10.6 64 3.6 ESE 7 13 4 7 1018.7 - 0.0
19/11:15pm 17.3 15.4 10.6 64 3.6 ESE 11 15 6 8 1018.8 - 0.0
19/11:00pm 17.2 14.9 10.6 65 3.5 SE 13 20 7 11 1018.8 - 0.0
19/10:45pm 17.4 15.1 10.5 64 3.7 SE 13 20 7 11 1018.6 - 0.0
19/10:30pm 17.4 14.8 10.6 64 3.7 SE 15 22 8 12 1018.4 - 0.0
19/10:15pm 17.4 15.1 10.6 64 3.7 ESE 13 22 7 12 1018.3 - 0.0
19/10:00pm 17.5 14.5 10.7 64 3.7 SE 17 28 9 15 1018.1 - 0.0
19/09:45pm 17.5 15.3 10.9 65 3.6 SE 13 22 7 12 1017.8 - 0.0
19/09:30pm 17.5 14.2 10.9 65 3.6 SE 19 28 10 15 1017.7 - 0.0
19/09:15pm 17.6 15.1 11.0 65 3.6 SE 15 24 8 13 1017.6 - 0.0
19/09:00pm 17.6 15.1 10.9 65 3.6 SE 15 22 8 12 1017.5 - 0.0
19/08:45pm 17.6 14.6 10.7 64 3.7 ESE 17 22 9 12 1017.3 - 0.0
19/08:30pm 17.6 14.6 10.5 63 3.8 ESE 17 28 9 15 1017.1 - 0.0
19/08:15pm 17.6 14.5 10.4 62 3.9 SE 17 26 9 14 1016.9 - 0.0
19/08:00pm 17.6 14.1 10.3 62 3.9 SE 19 28 10 15 1016.6 - 0.0
19/07:45pm 17.7 14.2 10.1 61 4.1 SE 19 32 10 17 1016.4 - 0.0
19/07:30pm 17.7 13.7 10.3 62 4.0 ESE 22 33 12 18 1016.0 - 0.0
19/07:15pm 17.8 13.7 10.0 60 4.2 SE 22 33 12 18 1015.7 - 0.0
19/07:00pm 17.8 14.0 9.8 59 4.3 SE 20 33 11 18 1015.3 - 0.0
19/06:45pm 18.0 14.3 10.1 60 4.2 SE 20 30 11 16 1015.0 - 0.0
19/06:30pm 18.0 14.0 10.4 61 4.1 ESE 22 32 12 17 1014.7 - 0.0
19/06:15pm 18.2 14.2 10.4 60 4.2 SE 22 33 12 18 1014.4 - 0.0
19/06:00pm 18.1 14.5 10.7 62 4.0 SE 20 33 11 18 1014.1 - 0.0
19/05:45pm 18.6 13.9 10.5 59 4.4 SE 26 35 14 19 1013.7 - 0.0
19/05:30pm 19.0 15.1 10.8 59 4.5 SSE 22 32 12 17 1013.5 - 0.0
19/05:15pm 19.1 15.6 10.9 59 4.5 SE 20 35 11 19 1013.3 - 0.0
19/05:00pm 19.4 15.2 11.0 58 4.6 SE 24 35 13 19 1013.1 - 0.0
19/04:45pm 19.9 16.1 11.1 57 4.8 SE 22 37 12 20 1013.0 - 0.0
19/04:30pm 19.9 16.4 10.9 56 4.9 SE 20 35 11 19 1013.1 - 0.0
19/04:15pm 19.8 15.1 10.7 55 5.0 ESE 26 37 14 20 1013.1 - 0.0
19/04:00pm 19.8 15.8 10.6 55 5.0 SE 22 35 12 19 1013.0 - 0.0
19/03:45pm 20.0 16.3 10.3 53 5.3 SE 20 32 11 17 1013.0 - 0.0
19/03:30pm 19.9 15.8 10.1 53 5.3 SE 22 35 12 19 1012.9 - 0.0
19/03:15pm 20.0 16.0 10.6 54 5.1 SE 22 35 12 19 1012.8 - 0.0
19/03:00pm 20.1 16.7 11.1 56 5.0 SE 20 32 11 17 1012.8 - 0.0
19/02:45pm 19.6 15.3 10.9 57 4.8 ESE 24 33 13 18 1012.9 - 0.0
19/02:30pm 19.5 15.2 10.7 56 4.8 SE 24 33 13 18 1012.9 - 0.0
19/02:15pm 20.3 16.9 11.1 55 5.1 SE 20 30 11 16 1012.9 - 0.0
19/02:00pm 20.0 16.5 11.0 56 5.0 SE 20 33 11 18 1012.9 - 0.0
19/01:45pm 20.3 17.0 11.0 55 5.1 SE 19 32 10 17 1013.0 - 0.0
19/01:30pm 19.9 16.1 11.1 57 4.8 SE 22 35 12 19 1013.0 - 0.0
19/01:15pm 20.3 16.5 11.3 56 5.0 SE 22 33 12 18 1013.0 - 0.0
19/01:00pm 19.6 15.3 10.9 57 4.8 SE 24 37 13 20 1013.1 - 0.0
19/12:45pm 20.6 17.3 11.0 54 5.3 SE 19 33 10 18 1013.0 - 0.0
19/12:30pm 20.6 17.5 11.6 56 5.0 SSE 19 32 10 17 1013.0 - 0.0
19/12:15pm 20.0 16.8 11.2 57 4.9 SE 19 35 10 19 1013.1 - 0.0
19/12:00pm 20.3 17.2 11.7 57 4.8 SE 19 32 10 17 1013.1 - 0.0
19/11:45am 20.0 16.9 11.7 59 4.6 SSE 19 28 10 15 1013.1 - 0.0
19/11:30am 20.1 16.6 12.3 61 4.4 SE 22 32 12 17 1013.1 - 0.0
19/11:15am 19.7 16.0 12.7 64 4.0 SE 24 35 13 19 1013.0 - 0.0
19/11:00am 19.4 16.4 12.5 64 3.9 SSE 20 37 11 20 1013.0 - 0.0
19/10:45am 19.3 16.1 12.0 62 4.1 SSE 20 32 11 17 1013.0 - 0.0
19/10:30am 19.9 16.5 12.4 62 4.2 SE 22 33 12 18 1013.0 - 0.0
19/10:15am 19.9 16.5 12.6 63 4.1 SSE 22 41 12 22 1012.8 - 0.0
19/10:00am 19.9 16.9 12.6 63 4.1 SSE 20 35 11 19 1012.6 - 0.0
19/09:45am 19.7 16.7 12.4 62 4.1 SSE 20 33 11 18 1012.6 - 0.0
19/09:30am 19.4 15.2 12.3 63 4.0 SSE 26 39 14 21 1012.6 - 0.0
19/09:15am 19.2 14.6 12.4 64 3.8 S 28 39 15 21 1012.5 - 0.0
19/09:00am 18.8 13.4 12.3 66 3.6 SSE 32 43 17 23 1012.3 - 0.0
19/08:45am 18.6 14.2 12.8 69 3.3 SSE 28 41 15 22 1012.2 - 0.0
19/08:30am 18.4 14.0 12.8 70 3.2 SSE 28 46 15 25 1012.2 - 0.0
19/08:15am 18.2 13.8 13.0 71 2.9 SSE 28 43 15 23 1012.1 - 0.0
19/08:00am 18.1 14.1 13.1 72 2.8 SSE 26 44 14 24 1011.9 - 0.0
19/07:45am 17.8 13.8 13.0 73 2.7 SSE 26 39 14 21 1011.7 - 0.0
19/07:30am 17.4 13.0 12.8 74 2.6 SSE 28 43 15 23 1011.5 - 0.0
19/07:15am 17.2 12.4 12.9 76 2.4 SSE 30 44 16 24 1011.2 - 0.0
19/07:00am 16.9 12.1 12.9 77 2.2 SSE 30 43 16 23 1010.9 - 0.0
19/06:45am 16.6 12.6 12.9 79 2.1 SSE 26 39 14 21 1010.8 - 0.0
19/06:30am 16.4 12.8 13.0 80 1.9 S 24 41 13 22 1010.6 - 0.0
19/06:15am 16.2 12.2 13.0 81 1.8 S 26 43 14 23 1010.2 - 0.0
19/06:00am 16.3 11.6 13.1 81 1.8 SSE 30 46 16 25 1009.9 - 0.0
19/05:45am 16.3 10.3 13.3 82 1.7 SSE 37 54 20 29 1009.7 - 0.0
19/05:30am 16.4 11.2 13.5 83 1.6 SSE 33 48 18 26 1009.5 - 0.0
19/05:15am 16.5 12.4 13.8 84 1.5 S 28 41 15 22 1009.2 - 0.0
19/05:00am 16.7 13.1 14.2 85 1.4 SSE 26 43 14 23 1009.0 - 0.0
19/04:45am 16.8 14.0 14.4 86 1.4 S 22 35 12 19 1008.9 - 0.0
19/04:30am 17.0 13.9 14.6 86 1.4 S 24 33 13 18 1008.5 - 0.0
19/04:15am 17.4 14.4 14.8 85 1.5 S 24 37 13 20 1008.2 - 0.0
19/04:00am 18.6 16.0 16.0 85 1.6 S 24 39 13 21 1007.8 - 0.0
19/03:45am 19.2 18.1 17.3 89 1.2 SW 19 24 10 13 1007.4 - 0.0
19/03:30am 19.3 18.2 17.8 91 0.9 SW 20 28 11 15 1007.2 - 0.0
19/03:15am 19.5 18.2 18.1 92 0.9 SW 22 28 12 15 1006.9 - 0.0
19/03:00am 19.5 17.8 18.1 92 0.9 SW 24 28 13 15 1006.8 - 0.0
19/02:45am 19.6 18.7 18.2 92 0.9 SW 20 24 11 13 1006.6 - 0.0
19/02:30am 19.7 18.8 18.3 92 0.9 WSW 20 24 11 13 1006.4 - 0.0
19/02:15am 19.7 18.5 18.3 92 0.9 WSW 22 24 12 13 1006.4 - 0.0
19/02:00am 19.8 19.2 18.4 92 0.9 WSW 19 22 10 12 1006.3 - 0.0
19/01:45am 19.2 18.7 17.8 92 0.9 WSW 17 20 9 11 1006.3 - 0.0
19/01:30am 18.3 18.1 16.8 91 0.9 WSW 13 15 7 8 1006.3 - 0.0
19/01:15am 18.3 18.5 16.7 90 1.0 W 11 13 6 7 1006.3 - 0.0
19/01:00am 19.1 19.7 17.6 91 0.9 W 11 13 6 7 1006.3 - 0.0
19/12:45am 19.0 19.9 17.5 91 0.9 WNW 9 11 5 6 1006.4 - 0.0
19/12:30am 19.0 20.2 17.4 90 1.0 NW 7 7 4 4 1006.4 - 0.0
19/12:15am 19.2 20.7 17.6 90 1.0 NNW 6 7 3 4 1006.4 - 0.0
19/12:00am 19.3 20.8 17.7 90 1.0 NNW 6 7 3 4 1006.5 - 0.0
 
Date/Time
EDT
Temp
°C
App
Temp
°C
Dew
Point
Rel
Hum
%
Delta-T
°C
Wind Press
QNH
hPa
Press
MSL
hPa
Rain
since 9 am
mm
Dir
 
Spd
km/h
Gust
km/h
Spd
kts
Gust
kts
18/11:45pm 19.5 21.1 17.9 90 1.0 N 6 7 3 4 1006.5 - 0.0
18/11:30pm 19.7 21.3 17.9 89 1.1 N 6 7 3 4 1006.5 - 0.0
18/11:15pm 19.8 21.9 18.1 90 1.1 N 4 6 2 3 1006.5 - 0.0
18/11:00pm 20.0 22.5 18.2 89 1.1 NNE 2 4 1 2 1006.5 - 0.0
18/10:45pm 20.1 22.7 18.3 89 1.1 E 2 4 1 2 1006.6 - 0.0
18/10:30pm 20.2 22.8 18.3 89 1.2 E 2 4 1 2 1006.6 - 0.0
18/10:15pm 20.5 22.8 18.5 88 1.3 E 4 6 2 3 1006.5 - 0.0
18/10:00pm 20.7 23.0 18.6 88 1.3 E 4 6 2 3 1006.4 - 0.0
18/09:45pm 20.8 23.1 18.5 87 1.4 E 4 6 2 3 1006.3 - 0.0
18/09:30pm 21.1 23.4 18.6 86 1.6 E 4 6 2 3 1006.3 - 0.0
18/09:15pm 21.4 23.4 18.8 85 1.6 ENE 6 9 3 5 1006.0 - 0.0
18/09:00pm 21.6 23.5 19.0 85 1.7 ENE 7 13 4 7 1005.9 - 0.0
18/08:45pm 21.8 22.9 18.9 83 1.8 NE 11 15 6 8 1005.7 - 0.0
18/08:30pm 22.0 23.1 18.9 82 2.0 NE 11 19 6 10 1005.7 - 0.0
18/08:15pm 22.2 22.6 18.9 81 2.1 NE 15 22 8 12 1005.5 - 0.0
18/08:00pm 22.5 22.9 18.9 80 2.3 NE 15 24 8 13 1005.4 - 0.0
18/07:45pm 22.9 24.1 19.0 78 2.5 NE 11 19 6 10 1005.3 - 0.0
18/07:30pm 23.1 23.9 19.1 78 2.6 ENE 13 19 7 10 1005.1 - 0.0
18/07:15pm 23.4 23.1 19.1 77 2.8 ENE 19 24 10 13 1004.9 - 0.0
18/07:00pm 23.9 24.4 19.3 75 3.0 ENE 15 22 8 12 1004.7 - 0.0
18/06:45pm 24.1 23.8 19.2 74 3.1 ENE 19 24 10 13 1004.3 - 0.0
18/06:30pm 24.3 24.4 19.2 73 3.3 ENE 17 24 9 13 1004.2 - 0.0
18/06:15pm 24.8 24.9 19.1 70 3.7 ENE 17 24 9 13 1004.0 - 0.0
18/06:00pm 25.0 25.4 19.0 69 3.9 ENE 15 22 8 12 1003.9 - 0.0
18/05:45pm 25.3 26.1 19.0 68 4.0 ENE 13 19 7 10 1003.8 - 0.0
18/05:30pm 25.3 26.5 19.0 68 4.0 ENE 11 20 6 11 1003.7 - 0.0
18/05:15pm 25.5 26.3 19.1 67 4.1 ENE 13 20 7 11 1003.7 - 0.0
18/05:00pm 25.4 26.3 19.2 68 4.0 ENE 13 20 7 11 1003.9 - 0.0
18/04:45pm 25.1 25.6 19.2 70 3.8 ENE 15 26 8 14 1004.1 - 0.0
18/04:30pm 24.6 24.5 18.7 69 3.8 ENE 17 24 9 13 1004.3 - 0.0
18/04:15pm 24.6 24.1 18.6 69 3.8 ENE 19 28 10 15 1004.3 - 0.0
18/04:00pm 24.7 24.0 18.7 69 3.8 ENE 20 32 11 17 1004.7 - 0.0
18/03:45pm 25.3 24.3 18.9 67 4.1 ENE 22 32 12 17 1004.9 - 0.0
18/03:30pm 25.2 24.7 18.7 67 4.2 ENE 19 28 10 15 1005.2 - 0.0
18/03:15pm 25.0 24.4 18.8 68 4.0 ENE 20 28 11 15 1005.3 - 0.0
18/03:00pm 24.9 24.3 18.5 67 4.1 ENE 19 32 10 17 1005.4 - 0.0
18/02:45pm 24.8 23.9 18.3 67 4.1 ENE 20 32 11 17 1005.6 - 0.0
18/02:30pm 24.8 24.2 18.4 67 4.1 ENE 19 26 10 14 1005.8 - 0.0
18/02:15pm 24.6 23.9 18.3 68 4.0 ENE 19 24 10 13 1006.0 - 0.0
18/02:00pm 24.5 23.8 18.3 68 3.9 ENE 19 26 10 14 1006.2 - 0.0
18/01:45pm 24.2 24.3 18.3 69 3.7 NE 15 26 8 14 1006.3 - 0.0
18/01:30pm 24.0 23.6 18.1 69 3.7 ENE 17 24 9 13 1006.5 - 0.0
18/01:15pm 23.3 22.8 17.7 71 3.5 NE 17 24 9 13 1006.7 - 0.0
18/01:00pm 23.0 22.8 17.5 71 3.4 NE 15 22 8 12 1006.9 - 0.0
18/12:45pm 22.8 22.4 17.2 70 3.5 NNE 15 24 8 13 1007.2 - 0.0
18/12:30pm 22.7 22.7 17.2 71 3.4 NNE 13 19 7 10 1007.4 - 0.0
18/12:15pm 22.6 22.7 17.4 72 3.2 N 13 22 7 12 1007.6 - 0.0
18/12:00pm 22.2 22.1 17.0 72 3.2 N 13 24 7 13 1007.8 - 0.0
18/11:45am 22.3 22.6 17.0 72 3.3 NNE 11 17 6 9 1008.0 - 0.0
18/11:30am 22.2 22.5 17.1 73 3.1 N 11 19 6 10 1008.2 - 0.0
18/11:15am 21.7 21.6 17.0 74 2.9 N 13 22 7 12 1008.6 - 0.0
18/11:00am 21.1 21.6 16.5 75 2.8 N 9 15 5 8 1008.8 - 0.0
18/10:45am 20.9 21.3 16.4 75 2.7 N 9 17 5 9 1008.9 - 0.0
18/10:30am 20.8 20.9 16.4 76 2.7 N 11 19 6 10 1009.2 - 0.0
18/10:15am 20.7 21.1 16.3 76 2.7 - 9 17 5 9 1009.4 - 0.0
18/10:00am 20.5 21.5 16.4 77 2.5 N 6 13 3 7 1009.6 - 0.0
18/09:45am 19.6 20.9 16.1 80 2.1 N 4 7 2 4 1009.8 - 0.0
18/09:30am 19.0 20.1 15.5 80 2.1 N 4 7 2 4 1010.1 - 0.0
18/09:15am 18.9 20.0 15.5 80 2.0 N 4 7 2 4 1010.1 - 0.0
18/09:00am 18.4 19.8 15.4 83 1.8 SSW 2 4 1 2 1010.1 - 0.0
18/08:45am 18.0 19.3 15.2 84 1.6 S 2 9 1 5 1010.2 - 0.0
18/08:30am 17.7 18.2 15.0 84 1.6 SSW 6 7 3 4 1010.2 - 0.0
18/08:15am 17.2 17.6 14.7 85 1.5 SW 6 11 3 6 1010.4 - 0.0
18/08:00am 16.9 17.0 14.4 85 1.4 SW 7 13 4 7 1010.5 - 0.0
18/07:45am 16.8 16.5 14.3 85 1.4 WSW 9 11 5 6 1010.5 - 0.0
18/07:30am 16.9 16.9 14.2 84 1.6 W 7 9 4 5 1010.4 - 0.0
18/07:15am 16.9 17.1 14.2 84 1.6 WNW 6 9 3 5 1010.1 - 0.0
18/07:00am 16.8 17.0 14.1 84 1.5 WSW 6 9 3 5 1009.9 - 0.0
18/06:45am 16.7 16.6 14.0 84 1.5 WSW 7 9 4 5 1009.8 - 0.0
18/06:30am 16.7 16.8 14.0 84 1.5 WSW 6 9 3 5 1009.6 - 0.0
18/06:15am 16.6 17.1 14.0 84 1.5 SW 4 7 2 4 1009.3 - 0.0
18/06:00am 16.5 16.6 13.8 84 1.5 SW 6 9 3 5 1009.4 - 0.0
18/05:45am 16.5 16.4 13.8 84 1.5 SW 7 9 4 5 1009.3 - 0.0
18/05:30am 16.5 16.4 13.8 84 1.5 SW 7 9 4 5 1009.3 - 0.0
18/05:15am 16.5 16.6 13.8 84 1.5 SW 6 7 3 4 1009.1 - 0.0
18/05:00am 16.5 16.9 13.7 83 1.6 SSW 4 6 2 3 1008.9 - 0.0
18/04:45am 16.6 17.0 13.7 83 1.6 SSW 4 6 2 3 1008.9 - 0.0
18/04:30am 16.6 17.0 13.7 83 1.6 SSW 4 6 2 3 1008.9 - 0.0
18/04:15am 16.6 17.0 13.7 83 1.6 SSW 4 6 2 3 1008.8 - 0.0
18/04:00am 16.6 17.4 13.7 83 1.6 SE 2 6 1 3 1008.6 - 0.0
18/03:45am 16.6 17.4 13.7 83 1.6 NE 2 4 1 2 1008.9 - 0.0
18/03:30am 16.5 16.9 13.7 83 1.6 N 4 6 2 3 1009.3 - 0.0
18/03:15am 16.5 16.9 13.7 83 1.6 NNW 4 7 2 4 1009.6 - 0.0
18/03:00am 16.5 16.9 13.7 83 1.6 NNW 4 7 2 4 1009.9 - 0.0
18/02:45am 16.5 16.5 13.6 83 1.6 WNW 6 7 3 4 1010.0 - 0.0
18/02:30am 16.5 16.8 13.5 82 1.7 W 4 7 2 4 1010.0 - 0.0
18/02:15am 16.6 16.5 13.4 81 1.8 WSW 6 7 3 4 1010.0 - 0.0
18/02:00am 16.7 17.8 13.5 81 1.8 CALM 0 4 0 2 1010.0 - 0.0
18/01:45am 16.7 17.8 13.5 81 1.8 CALM 0 4 0 2 1010.1 - 0.0
18/01:30am 16.7 17.4 13.4 81 1.9 ESE 2 4 1 2 1010.4 - 0.0
18/01:15am 16.6 17.6 13.1 80 2.0 CALM 0 4 0 2 1010.7 - 0.0
18/01:00am 16.8 17.0 13.1 79 2.1 NNE 4 9 2 5 1010.9 - 0.0
18/12:45am 17.0 17.2 13.1 78 2.2 NNE 4 9 2 5 1010.9 - 0.0
18/12:30am 17.3 16.5 12.9 75 2.5 NE 9 17 5 9 1011.0 - 0.0
18/12:15am 17.5 16.3 12.7 73 2.7 NE 11 19 6 10 1011.0 - 0.0
18/12:00am 17.5 16.9 12.3 71 2.9 NE 7 13 4 7 1010.9 - 0.0
 
Date/Time
EDT
Temp
°C
App
Temp
°C
Dew
Point
Rel
Hum
%
Delta-T
°C
Wind Press
QNH
hPa
Press
MSL
hPa
Rain
since 9 am
mm
Dir
 
Spd
km/h
Gust
km/h
Spd
kts
Gust
kts
17/11:45pm 17.6 17.6 12.3 71 2.9 E 4 7 2 4 1011.0 - 0.0
17/11:30pm 17.5 17.4 12.1 70 3.0 E 4 7 2 4 1011.2 - 0.0
17/11:15pm 17.5 17.0 12.0 70 3.0 ESE 6 7 3 4 1011.2 - 0.0

Other Formats:

Comma delimited format used in spreadsheet applications
http://www.bom.gov.au/fwo/IDN60801/IDN60801.95757.axf

JavaScript Object Notation format (JSON) in row-major order
http://www.bom.gov.au/fwo/IDN60801/IDN60801.95757.json